Terminal Aerodrome Forecast
Issued by NWS Knoxville/Tri Cities, TN

Home | Current Version | Previous Version | Text Only | Print | Product List | Glossary On
Versions: 1 2 3 4 5 6 7 8 9 10 11 12 13 14 15 16 17 18 19 20 21 22 23 24 25 26 27 28 29 30 31 32 33 34 35 36 37 38 39 40 41 42 43 44 45 46 47
000
FTUS44 KMRX 231515 AAA
TAFTYS
TAF AMD
KTYS 231515Z 2315/2412 03008KT 2SM SHRA BR SCT003 BKN006 OVC035
     FM231600 03008KT 3SM -SHRA BR OVC006
     FM232300 02009KT 4SM BR VCSH OVC005
     FM240600 02010KT 5SM BR OVC008=

USA.gov is the U.S. government's official web portal to all federal, state and local government web resources and services.